Pagrindinis puslapis
METAR-TAF:

METAR-TAF

Oro uostai :

Kristianstadas, Švedija

platuma: 55-55N, ilguma: 014-05E, Aukštis: 23 m

Dabartinis oras

Ataskaita buvo paskelbta 29 minutes, ne 05:20 UTC
Vėjas 2 kt nuo kintamojo kryptimis
Temperatūra 12°C
Drėgmė 100%
Slėgis 1019 hPa
Matomumas: 0100 m
rūkas

METAR: ESMK 130520Z AUTO VRB02KT 0100 R01/0700N R19/0225N FG OVC001/// 12/12 Q1019

Laikas: 07:49 (05:49 UTC)

Prognozė

Ataskaita buvo paskelbta 18 valandos ir 47 minutes, ne 11:02 UTC
Prognozė galioja nuo 12 metu 12 UTC su 12 metu 15 UTC
Vėjas 8 kt iš Rytų
Matomumas 10 km arba daugiau
nėra debesų žemiau 1500 m ir nėra kamuolinių lietaus debesų

TAF: ESMK 121102Z 1212/1215 10008KT CAVOK

Orai ataskaitas ir orų prognozės (METAR, TAF).

turimą stotys yra geltonos ir raudonos taškus žemėlapyje.

Perkelti pele per norėdami pamatyti stoties vardą.

Tada spustelėkite, norėdami matyti oro stebėjimo ir prognozės.

Norėdami pakeisti žemėlapį: spustelėkite ant žalios mygtukų su juodo kryžiaus žemyn,; žalią mygtuką su brūkšneliu, jei norite nutolinti; arba žalių rodyklių gretimoms žemėlapius.


METAR-TAF: